Home > Products > Valid Products > MTR

000
SAUS46 KSGX 210953
MTRCZZ
METAR KCZZ 210952Z AUTO 05003KT 11/09 A2992 RMK AO1 SLP103 T01110094





000
SAUS46 KSGX 210952
MTRSAN
METAR KSAN 210951Z 00000KT 10SM BKN020 21/16 A2991 RMK AO2 SLP129
T02060156





000
SAUS46 KSGX 210853
MTRCZZ
METAR KCZZ 210852Z AUTO 05005KT 11/09 A2993 RMK AO1 SLP107 T01060094
57003





000
SAUS46 KSGX 210852
MTRSAN
METAR KSAN 210851Z 30003KT 10SM OVC016 21/16 A2991 RMK AO2 SLP129
T02060161 58005





000
SAUS46 KSGX 210753
MTRCZZ
METAR KCZZ 210752Z AUTO 06005KT 10/09 A2993 RMK AO1 SLP110 T01000089
402610072





000
SAUS46 KSGX 210752
MTRSAN
METAR KSAN 210751Z 00000KT 10SM BKN016 21/16 A2992 RMK AO2 SLP130
T02060161 402280189





000
SAUS46 KSGX 210653
MTRCZZ
METAR KCZZ 210652Z AUTO 05004KT 11/10 A2993 RMK AO1 SLP109 T01110100





000
SAUS46 KSGX 210652
MTRSAN
METAR KSAN 210651Z 00000KT 10SM BKN016 21/16 A2992 RMK AO2 SLP133
T02060161





000
SAUS46 KSGX 210553
MTRCZZ
METAR KCZZ 210552Z AUTO 05004KT 12/11 A2994 RMK AO1 SLP110 T01220106
10233 20117 50006





000
SAUS46 KSGX 210552
MTRSAN
METAR KSAN 210551Z 00000KT 10SM OVC016 21/16 A2993 RMK AO2 SLP134
T02060161 10222 20206 50005





000
SAUS46 KSGX 210453
MTRCZZ
METAR KCZZ 210452Z AUTO 05003KT 12/11 A2994 RMK AO1 SLP112 T01220106





000
SAUS46 KSGX 210453
MTRCZZ
METAR KCZZ 210452Z AUTO 05003KT 12/11 A2994 RMK AO1 SLP112 T01220106





000
SAUS46 KSGX 210452
MTRSAN
METAR KSAN 210451Z 34005KT 10SM OVC016 21/16 A2993 RMK AO2 SLP135
T02060161





000
SAUS46 KSGX 210452
MTRSAN
METAR KSAN 210451Z 34005KT 10SM OVC016 21/16 A2993 RMK AO2 SLP135
T02060161





000
SAUS46 KSGX 210353
MTRCZZ
METAR KCZZ 210352Z AUTO 02003KT 13/11 A2993 RMK AO1 SLP112 T01330111





000
SAUS46 KSGX 210353
MTRCZZ
METAR KCZZ 210352Z AUTO 02003KT 13/11 A2993 RMK AO1 SLP112 T01330111





000
SAUS46 KSGX 210352
MTRSAN
METAR KSAN 210351Z 31004KT 10SM BKN018 21/16 A2992 RMK AO2 SLP131
T02110161





000
SAUS46 KSGX 210352
MTRSAN
METAR KSAN 210351Z 31004KT 10SM BKN018 21/16 A2992 RMK AO2 SLP131
T02110161





000
SAUS46 KSGX 210253
MTRSAN
METAR KSAN 210251Z 32004KT 10SM BKN018 21/16 A2991 RMK AO2 SLP129
T02060161 53009





000
SAUS46 KSGX 210253
MTRSAN
METAR KSAN 210251Z 32004KT 10SM BKN018 21/16 A2991 RMK AO2 SLP129
T02060161 53009





000
SAUS46 KSGX 210253
MTRCZZ
METAR KCZZ 210252Z AUTO 21005KT 17/14 A2992 RMK AO1 SLP110 T01670139
53011





000
SAUS46 KSGX 210253
MTRCZZ
METAR KCZZ 210252Z AUTO 21005KT 17/14 A2992 RMK AO1 SLP110 T01670139
53011





000
SAUS46 KSGX 210248
MTRSAN
SPECI KSAN 210247Z 33003KT 10SM BKN018 21/16 A2991 RMK AO2





000
SAUS46 KSGX 210248
MTRSAN
SPECI KSAN 210247Z 33003KT 10SM BKN018 21/16 A2991 RMK AO2





000
SAUS46 KSGX 210153
MTRCZZ
METAR KCZZ 210152Z AUTO 21008KT 18/14 A2991 RMK AO1 SLP107 T01780144





000
SAUS46 KSGX 210153
MTRCZZ
METAR KCZZ 210152Z AUTO 21008KT 18/14 A2991 RMK AO1 SLP107 T01780144





000
SAUS46 KSGX 210152
MTRSAN
METAR KSAN 210151Z 31004KT 10SM SCT018 21/16 A2990 RMK AO2 SLP126
T02060156





000
SAUS46 KSGX 210152
MTRSAN
METAR KSAN 210151Z 31004KT 10SM SCT018 21/16 A2990 RMK AO2 SLP126
T02060156





000
SAUS46 KSGX 210053
MTRCZZ
METAR KCZZ 210052Z AUTO 22010KT 21/14 A2989 RMK AO1 SLP098 T02060144





000
SAUS46 KSGX 210052
MTRSAN
METAR KSAN 210051Z 31007KT 10SM SCT019 21/16 A2989 RMK AO2 SLP121
T02110156





000
SAUS46 KSGX 202353
MTRCZZ
METAR KCZZ 202352Z AUTO 22010KT 24/14 A2988 RMK AO1 SLP095 T02390144
10261 20233 55002





000
SAUS46 KSGX 202352
MTRSAN
METAR KSAN 202351Z 29008G15KT 10SM FEW022 22/16 A2989 RMK AO2 SLP119
T02220156 10228 20217 56007





000
SAUS46 KSGX 202253
MTRCZZ
METAR KCZZ 202252Z AUTO 22012KT 26/13 A2988 RMK AO1 SLP091 T02560133





000
SAUS46 KSGX 202253
MTRCZZ
METAR KCZZ 202252Z AUTO 22012KT 26/13 A2988 RMK AO1 SLP091 T02560133





000
SAUS46 KSGX 202252
MTRSAN
METAR KSAN 202251Z 29008KT 10SM FEW010 SCT022 22/16 A2989 RMK AO2
SLP121 T02220156





000
SAUS46 KSGX 202252
MTRSAN
METAR KSAN 202251Z 29008KT 10SM FEW010 SCT022 22/16 A2989 RMK AO2
SLP121 T02220156





000
SAUS46 KSGX 202153
MTRCZZ
METAR KCZZ 202152Z AUTO 20012KT 26/13 A2988 RMK AO1 SLP092 T02610128





000
SAUS46 KSGX 202153
MTRCZZ
METAR KCZZ 202152Z AUTO 20012KT 26/13 A2988 RMK AO1 SLP092 T02610128





000
SAUS46 KSGX 202152
MTRSAN
METAR KSAN 202151Z 30007KT 10SM FEW010 SCT023 23/16 A2989 RMK AO2
SLP123 T02280156





000
SAUS46 KSGX 202152
MTRSAN
METAR KSAN 202151Z 30007KT 10SM FEW010 SCT023 23/16 A2989 RMK AO2
SLP123 T02280156





000
SAUS46 KSGX 202142
MTRSAN
SPECI KSAN 202141Z 31008KT 8SM FEW010 SCT023 23/16 A2990 RMK AO2





000
SAUS46 KSGX 202142
MTRSAN
SPECI KSAN 202141Z 31008KT 8SM FEW010 SCT023 23/16 A2990 RMK AO2





000
SAUS46 KSGX 202053
MTRCZZ
METAR KCZZ 202052Z AUTO 22014KT 24/13 A2989 RMK AO1 SLP095 T02440133
56016





000
SAUS46 KSGX 202052
MTRSAN
METAR KSAN 202051Z 31009KT 10SM BKN026 22/16 A2991 RMK AO2 SLP127
T02220156 58019





000
SAUS46 KSGX 201953
MTRCZZ
METAR KCZZ 201952Z AUTO 21016KT 24/13 A2990 RMK AO1 SLP098 T02390133





000
SAUS46 KSGX 201952
MTRSAN
METAR KSAN 201951Z 30007KT 10SM FEW018 BKN026 22/16 A2992 RMK AO2
SLP132 T02220161





000
SAUS46 KSGX 201853
MTRCZZ
METAR KCZZ 201852Z AUTO 21015KT 24/12 A2992 RMK AO1 SLP107 T02390122





000
SAUS46 KSGX 201852
MTRSAN
METAR KSAN 201851Z 29005KT 10SM FEW018 OVC026 22/17 A2995 RMK AO2
SLP141 T02170167





000
SAUS46 KSGX 201753
MTRCZZ
METAR KCZZ 201752Z AUTO 22007KT 23/08 A2994 RMK AO1 SLP113 T02330083
10233 20072 50001





000
SAUS46 KSGX 201752
MTRSAN
METAR KSAN 201751Z VRB04KT 10SM SCT016 OVC024 22/16 A2996 RMK AO2
SLP146 T02170161 10217 20194 51010





000
SAUS46 KSGX 201653
MTRCZZ
METAR KCZZ 201652Z AUTO 18005KT 22/09 A2994 RMK AO1 SLP116 T02170089





000
SAUS46 KSGX 201652
MTRSAN
METAR KSAN 201651Z 00000KT 10SM BKN016 OVC026 21/16 A2996 RMK AO2
SLP144 T02110161





000
SAUS46 KSGX 201553
MTRCZZ
METAR KCZZ 201552Z AUTO 00000KT 17/09 A2995 RMK AO1 SLP118 T01670094





000
SAUS46 KSGX 201552
MTRSAN
METAR KSAN 201551Z VRB03KT 9SM SCT015 OVC026 21/16 A2996 RMK AO2
SLP143 T02060161





000
SAUS46 KSGX 201453
MTRCZZ
METAR KCZZ 201452Z AUTO 05005KT 11/07 A2994 RMK AO1 SLP118 T01110067
51009





000
SAUS46 KSGX 201452
MTRSAN
METAR KSAN 201451Z 07003KT 9SM SCT015 OVC026 20/16 A2993 RMK AO2
SLP136 T02000161 51011





000
SAUS46 KSGX 201353
MTRCZZ
METAR KCZZ 201352Z AUTO 05006KT 09/06 A2993 RMK AO1 SLP115 T00940061





000
SAUS46 KSGX 201352
MTRSAN
METAR KSAN 201351Z 00000KT 10SM BKN019 20/16 A2992 RMK AO2 SLP132
T02000161 $





000
SAUS46 KSGX 201253
MTRCZZ
METAR KCZZ 201252Z AUTO 06005KT 09/06 A2992 RMK AO1 SLP111 T00890061





000
SAUS46 KSGX 201252
MTRSAN
METAR KSAN 201251Z 00000KT 10SM BKN015 20/16 A2992 RMK AO2 SLP130
T02000161 $





000
SAUS46 KSGX 201153
MTRCZZ
METAR KCZZ 201152Z AUTO 04003KT 08/06 A2991 RMK AO1 SLP106 T00780061
10117 20072 53002





000
SAUS46 KSGX 201152
MTRSAN
METAR KSAN 201151Z 00000KT 10SM BKN016 BKN021 19/16 A2990 RMK AO2
SLP125 T01940156 10200 20189 53002 $





000
SAUS46 KSGX 201053
MTRCZZ
METAR KCZZ 201052Z AUTO 03004KT 10/07 A2989 RMK AO1 SLP096 T01000072





000
SAUS46 KSGX 201053
MTRCZZ
METAR KCZZ 201052Z AUTO 03004KT 10/07 A2989 RMK AO1 SLP096 T01000072





000
SAUS46 KSGX 201052
MTRSAN
METAR KSAN 201051Z 08004KT 10SM BKN021 20/16 A2989 RMK AO2 SLP122
T02000161 $





000
SAUS46 KSGX 200953
MTRCZZ
METAR KCZZ 200952Z AUTO 02004KT 09/07 A2990 RMK AO1 SLP098 T00890072





000
SAUS46 KSGX 200953
MTRCZZ
METAR KCZZ 200952Z AUTO 02004KT 09/07 A2990 RMK AO1 SLP098 T00890072





000
SAUS46 KSGX 200952
MTRSAN
METAR KSAN 200951Z 00000KT 10SM BKN017 19/16 A2989 RMK AO2 SLP121
T01940161 $





000
SAUS46 KSGX 200952
MTRSAN
METAR KSAN 200951Z 00000KT 10SM BKN017 19/16 A2989 RMK AO2 SLP121
T01940161 $





000
SAUS46 KSGX 200927
MTRSAN
SPECI KSAN 200925Z 00000KT 10SM BKN015 19/16 A2989 RMK AO2 $





000
SAUS46 KSGX 200853
MTRCZZ
METAR KCZZ 200852Z AUTO 04006KT 10/08 A2990 RMK AO1 SLP099 T01000078
56006





000
SAUS46 KSGX 200852
MTRSAN
METAR KSAN 200851Z 00000KT 10SM FEW020 19/16 A2990 RMK AO2 SLP123
T01940156 55004 $





000
SAUS46 KSGX 200753
MTRCZZ
METAR KCZZ 200752Z AUTO 00000KT 11/09 A2991 RMK AO1 SLP101 T01110094
402670061





000
SAUS46 KSGX 200753
MTRCZZ
METAR KCZZ 200752Z AUTO 00000KT 11/09 A2991 RMK AO1 SLP101 T01110094
402670061





000
SAUS46 KSGX 200752
MTRSAN
METAR KSAN 200751Z 36003KT 10SM FEW020 19/16 A2989 RMK AO2 SLP122
T01940156 402390194 $





000
SAUS46 KSGX 200752
MTRSAN
METAR KSAN 200751Z 36003KT 10SM FEW020 19/16 A2989 RMK AO2 SLP122
T01940156 402390194 $





000
SAUS46 KSGX 200653
MTRCZZ
METAR KCZZ 200652Z AUTO 04004KT 11/09 A2991 RMK AO1 SLP105 T01060094





000
SAUS46 KSGX 200652
MTRSAN
METAR KSAN 200651Z 00000KT 10SM FEW020 20/16 A2990 RMK AO2 SLP125
T02000161 $





000
SAUS46 KSGX 200553
MTRCZZ
METAR KCZZ 200552Z AUTO 04003KT 11/10 A2992 RMK AO1 SLP112 T01110100
10222 20106 51008





000
SAUS46 KSGX 200552
MTRSAN
METAR KSAN 200551Z 00000KT 10SM FEW020 21/16 A2991 RMK AO2 SLP127
T02060161 10222 20200 51007 $





000
SAUS46 KSGX 200453
MTRCZZ
METAR KCZZ 200452Z AUTO 06004KT 11/09 A2992 RMK AO1 SLP113 T01060094





000
SAUS46 KSGX 200452
MTRSAN
METAR KSAN 200451Z 00000KT 10SM FEW020 21/16 A2991 RMK AO2 SLP127
T02060161 $





000
SAUS46 KSGX 200353
MTRCZZ
METAR KCZZ 200352Z AUTO 34003KT 14/12 A2990 RMK AO1 SLP107 T01390117





000
SAUS46 KSGX 200352
MTRSAN
METAR KSAN 200351Z 31003KT 10SM SCT020 21/16 A2990 RMK AO2 SLP123
T02060161 $





000
SAUS46 KSGX 200253
MTRCZZ
METAR KCZZ 200252Z AUTO 00000KT 16/13 A2990 RMK AO1 SLP106 T01560133
51015





000
SAUS46 KSGX 200252
MTRSAN
METAR KSAN 200251Z 29003KT 10SM SCT020 21/17 A2989 RMK AO2 SLP120
T02060167 53010 $





000
SAUS46 KSGX 200153
MTRCZZ
METAR KCZZ 200152Z AUTO 19006KT 17/14 A2989 RMK AO1 SLP103 T01670139





000
SAUS46 KSGX 200152
MTRSAN
METAR KSAN 200151Z 29005KT 10SM FEW020 21/16 A2987 RMK AO2 SLP115
T02110161 $





000
SAUS46 KSGX 200053
MTRCZZ
METAR KCZZ 200052Z AUTO 22009KT 19/14 A2986 RMK AO1 SLP092 T01940139





000
SAUS46 KSGX 200052
MTRSAN
METAR KSAN 200051Z 31004KT 10SM FEW020 22/16 A2986 RMK AO2 SLP111
T02170156 $





000
SAUS46 KSGX 192353
MTRCZZ
METAR KCZZ 192352Z AUTO 22014KT 22/14 A2985 RMK AO1 SLP085 T02220139
10267 20178 56001





000
SAUS46 KSGX 192353
MTRCZZ
METAR KCZZ 192352Z AUTO 22014KT 22/14 A2985 RMK AO1 SLP085 T02220139
10267 20178 56001





000
SAUS46 KSGX 192352
MTRSAN
METAR KSAN 192351Z 31007KT 10SM FEW020 22/16 A2986 RMK AO2 SLP110
T02220156 10239 20222 58007 $





000
SAUS46 KSGX 192352
MTRSAN
METAR KSAN 192351Z 31007KT 10SM FEW020 22/16 A2986 RMK AO2 SLP110
T02220156 10239 20222 58007 $





000
SAUS46 KSGX 192253
MTRCZZ
METAR KCZZ 192252Z AUTO 24008KT 25/12 A2985 RMK AO1 SLP082 T02500117





000
SAUS46 KSGX 192253
MTRCZZ
METAR KCZZ 192252Z AUTO 24008KT 25/12 A2985 RMK AO1 SLP082 T02500117





000
SAUS46 KSGX 192252
MTRSAN
METAR KSAN 192251Z 30008KT 10SM SCT020 SCT025 22/16 A2987 RMK AO2
SLP113 T02220156 $





000
SAUS46 KSGX 192252
MTRSAN
METAR KSAN 192251Z 30008KT 10SM SCT020 SCT025 22/16 A2987 RMK AO2
SLP113 T02220156 $





000
SAUS46 KSGX 192232
MTRSAN
SPECI KSAN 192231Z 29012KT 10SM FEW024 SCT028 23/16 A2987 RMK AO2 $





000
SAUS46 KSGX 192232
MTRSAN
SPECI KSAN 192231Z 29012KT 10SM FEW024 SCT028 23/16 A2987 RMK AO2 $





000
SAUS46 KSGX 192153
MTRCZZ
METAR KCZZ 192152Z AUTO VRB05KT 26/11 A2985 RMK AO1 SLP081 T02610111





000
SAUS46 KSGX 192153
MTRCZZ
METAR KCZZ 192152Z AUTO VRB05KT 26/11 A2985 RMK AO1 SLP081 T02610111





000
SAUS46 KSGX 192152
MTRSAN
METAR KSAN 192151Z 30012KT 10SM SCT024 BKN029 23/16 A2988 RMK AO2
SLP116 T02280156 $





000
SAUS46 KSGX 192102
MTRSAN
SPECI KSAN 192101Z 31010KT 10SM SCT024 BKN029 23/16 A2988 RMK AO2 $





000
SAUS46 KSGX 192053
MTRCZZ
METAR KCZZ 192052Z AUTO 23012G18KT 26/12 A2985 RMK AO1 SLP083
T02610117 56022





000
SAUS46 KSGX 192052
MTRSAN
METAR KSAN 192051Z 28009KT 10SM SCT024 SCT029 23/15 A2988 RMK AO2
SLP117 T02330150 56017 $





000
SAUS46 KSGX 191954
MTRCZZ
METAR KCZZ 191952Z AUTO 22011KT 24/11 A2987 RMK AO1 SLP090 T02440111





000
SAUS46 KSGX 191952
MTRSAN
METAR KSAN 191951Z 26007KT 220V290 10SM SCT024 SCT029 23/16 A2989
RMK AO2 SLP122 T02280156 $





000
SAUS46 KSGX 191853
MTRCZZ
METAR KCZZ 191852Z AUTO 21008KT 21/12 A2990 RMK AO1 SLP100 T02110122





000
SAUS46 KSGX 191852
MTRSAN
METAR KSAN 191851Z 25008KT 10SM SCT024 SCT029 23/15 A2991 RMK AO2
SLP128 T02280150 $





000
SAUS46 KSGX 191753
MTRCZZ
METAR KCZZ 191752Z AUTO VRB03KT 18/12 A2992 RMK AO1 SLP111 T01780117
10178 20061 50003





000
SAUS46 KSGX 191752
MTRSAN
METAR KSAN 191751Z 20005KT 10SM SCT024 SCT029 22/14 A2993 RMK AO2
SLP134 T02220144 10228 20194 50003 $





000
SAUS46 KSGX 191653
MTRCZZ
METAR KCZZ 191652Z AUTO 00000KT 14/12 A2994 RMK AO1 SLP119 T01390117





000
SAUS46 KSGX 191652
MTRSAN
METAR KSAN 191651Z 00000KT 10SM SCT024 SCT029 22/15 A2994 RMK AO2
SLP137 T02170150 $





000
SAUS46 KSGX 191553
MTRCZZ
METAR KCZZ 191552Z AUTO 00000KT 12/10 A2993 RMK AO1 SLP118 T01170100





000
SAUS46 KSGX 191552
MTRSAN
METAR KSAN 191551Z 00000KT 10SM FEW023 21/14 A2993 RMK AO2 SLP135
T02110144 $





000
SAUS46 KSGX 191453
MTRCZZ
METAR KCZZ 191452Z AUTO 00000KT 08/07 A2991 RMK AO1 SLP112 T00830072
53013





000
SAUS46 KSGX 191452
MTRSAN
METAR KSAN 191451Z 00000KT 10SM SCT022 20/14 A2992 RMK AO2 SLP130
T02000139 53015 $





000
SAUS46 KSGX 191435
MTRSAN
SPECI KSAN 191434Z 00000KT 10SM SCT019 19/14 A2991 RMK AO2 $





000
SAUS46 KSGX 191353
MTRCZZ
METAR KCZZ 191352Z AUTO 00000KT 07/06 A2989 RMK AO1 SLP105 T00720061





000
SAUS46 KSGX 191352
MTRSAN
METAR KSAN 191351Z 00000KT 10SM BKN019 19/14 A2990 RMK AO2 SLP123
T01940139 $





000
SAUS46 KSGX 191253
MTRCZZ
METAR KCZZ 191252Z AUTO 00000KT 08/07 A2988 RMK AO1 SLP099 T00780067





000
SAUS46 KSGX 191252
MTRSAN
METAR KSAN 191251Z 00000KT 10SM SCT023 BKN029 19/14 A2989 RMK AO2
SLP120 T01940144 $





000
SAUS46 KSGX 191153
MTRCZZ
METAR KCZZ 191152Z AUTO 03004KT 08/07 A2987 RMK AO1 SLP094 T00780067
10106 20072 55005





000
SAUS46 KSGX 191152
MTRSAN
METAR KSAN 191151Z 00000KT 10SM BKN028 19/14 A2987 RMK AO2 SLP116
T01940144 10211 20194 55005 $





000
SAUS46 KSGX 191053
MTRCZZ
METAR KCZZ 191052Z AUTO 05004KT 08/07 A2987 RMK AO1 SLP091 T00830072





000
SAUS46 KSGX 191052
MTRSAN
METAR KSAN 191051Z 03003KT 10SM BKN024 20/14 A2987 RMK AO2 SLP113
T02000144 $





000
SAUS46 KSGX 190953
MTRCZZ
METAR KCZZ 190952Z AUTO 05003KT 09/08 A2988 RMK AO1 SLP093 T00890078





000
SAUS46 KSGX 190953
MTRCZZ
METAR KCZZ 190952Z AUTO 05003KT 09/08 A2988 RMK AO1 SLP093 T00890078





000
SAUS46 KSGX 190953
MTRSAN
METAR KSAN 190951Z 00000KT 10SM BKN024 21/14 A2987 RMK AO2 SLP116
T02060144 $





000
SAUS46 KSGX 190953
MTRSAN
METAR KSAN 190951Z 00000KT 10SM BKN024 21/14 A2987 RMK AO2 SLP116
T02060144 $





000
SAUS46 KSGX 190853
MTRCZZ
METAR KCZZ 190852Z AUTO 07005KT 08/07 A2989 RMK AO1 SLP098 T00830067
55001





000
SAUS46 KSGX 190852
MTRSAN
METAR KSAN 190851Z 00000KT 10SM BKN024 21/14 A2989 RMK AO2 SLP121
T02060144 55002 $





000
SAUS46 KSGX 190753
MTRCZZ
METAR KCZZ 190752Z AUTO 00000KT 09/07 A2989 RMK AO1 SLP096 T00940072
402330072





000
SAUS46 KSGX 190752
MTRSAN
METAR KSAN 190751Z 00000KT 10SM BKN026 21/15 A2989 RMK AO2 SLP120
T02060150 402330194 $





000
SAUS46 KSGX 190653
MTRCZZ
METAR KCZZ 190652Z AUTO 00000KT 11/09 A2988 RMK AO1 SLP096 T01060089





000
SAUS46 KSGX 190652
MTRSAN
METAR KSAN 190651Z 00000KT 10SM BKN020 20/15 A2989 RMK AO2 SLP120
T02000150 $





000
SAUS46 KSGX 190636
MTRSAN
SPECI KSAN 190635Z 00000KT 10SM BKN020 20/15 A2989 RMK AO2 $





000
SAUS46 KSGX 190553
MTRCZZ
METAR KCZZ 190552Z AUTO 06006KT 11/09 A2989 RMK AO1 SLP100 T01060089
10211 20106 50001





000
SAUS46 KSGX 190552
MTRSAN
METAR KSAN 190551Z 00000KT 10SM FEW020 20/15 A2989 RMK AO2 SLP123
T02000150 10222 20200 50002 $





000
SAUS46 KSGX 190453
MTRCZZ
METAR KCZZ 190452Z AUTO 04005KT 11/09 A2990 RMK AO1 SLP104 T01110094





000
SAUS46 KSGX 190453
MTRSAN
METAR KSAN 190451Z 00000KT 10SM SCT020 20/15 A2990 RMK AO2 SLP124
T02000150 $





000
SAUS46 KSGX 190453
MTRSAN
METAR KSAN 190451Z 00000KT 10SM SCT020 20/15 A2990 RMK AO2 SLP124
T02000150 $





000
SAUS46 KSGX 190453
MTRCZZ
METAR KCZZ 190452Z AUTO 04005KT 11/09 A2990 RMK AO1 SLP104 T01110094





000
SAUS46 KSGX 190354
MTRCZZ
METAR KCZZ 190352Z AUTO 00000KT 13/12 A2990 RMK AO1 SLP105 T01330117





000
SAUS46 KSGX 190354
MTRCZZ
METAR KCZZ 190352Z AUTO 00000KT 13/12 A2990 RMK AO1 SLP105 T01330117





000
SAUS46 KSGX 190352
MTRSAN
METAR KSAN 190351Z 01003KT 10SM SCT020 21/15 A2990 RMK AO2 SLP123
T02060150 $





000
SAUS46 KSGX 190352
MTRSAN
METAR KSAN 190351Z 01003KT 10SM SCT020 21/15 A2990 RMK AO2 SLP123
T02060150 $





000
SAUS46 KSGX 190253
MTRCZZ
METAR KCZZ 190252Z AUTO 20005KT 14/12 A2989 RMK AO1 SLP103 T01440122
53016





000
SAUS46 KSGX 190252
MTRSAN
METAR KSAN 190251Z 29003KT 10SM SCT022 21/15 A2989 RMK AO2 SLP121
T02060150 53010 $





000
SAUS46 KSGX 190153
MTRCZZ
METAR KCZZ 190152Z AUTO 22007KT 16/12 A2987 RMK AO1 SLP096 T01560122





000
SAUS46 KSGX 190152
MTRSAN
METAR KSAN 190151Z 30005KT 10SM FEW020 SCT035 21/14 A2987 RMK AO2
SLP116 T02110139 $





000
SAUS46 KSGX 190053
MTRCZZ
METAR KCZZ 190052Z AUTO 22012KT 18/12 A2985 RMK AO1 SLP088 T01830122





000
SAUS46 KSGX 190052
MTRSAN
METAR KSAN 190051Z 30007KT 10SM FEW020 SCT040 22/14 A2987 RMK AO2
SLP113 T02170139 $





000
SAUS46 KSGX 182353
MTRCZZ
METAR KCZZ 182352Z AUTO 23011KT 21/12 A2984 RMK AO1 SLP079 T02110122
10233 20183 56004





000
SAUS46 KSGX 182352
MTRSAN
METAR KSAN 182351Z 28010KT 10SM SCT022 22/14 A2986 RMK AO2 SLP110
T02220139 10233 20211 56008 $





000
SAUS46 KSGX 182253
MTRCZZ
METAR KCZZ 182252Z AUTO 22014G20KT 23/11 A2984 RMK AO1 SLP076
T02280106





000
SAUS46 KSGX 182252
MTRSAN
METAR KSAN 182251Z 30008KT 10SM FEW022 23/14 A2987 RMK AO2 SLP113
T02280144 $





000
SAUS46 KSGX 182153
MTRCZZ
METAR KCZZ 182152Z AUTO 21010G17KT 190V250 23/10 A2984 RMK AO1
SLP078 T02330100





000
SAUS46 KSGX 182153
MTRCZZ
METAR KCZZ 182152Z AUTO 21010G17KT 190V250 23/10 A2984 RMK AO1
SLP078 T02330100





000
SAUS46 KSGX 182152
MTRSAN
METAR KSAN 182151Z 31008KT 10SM FEW022 SCT027 23/14 A2987 RMK AO2
SLP115 T02330144





000
SAUS46 KSGX 182152
MTRSAN
METAR KSAN 182151Z 31008KT 10SM FEW022 SCT027 23/14 A2987 RMK AO2
SLP115 T02330144





000
SAUS46 KSGX 182053
MTRCZZ
METAR KCZZ 182052Z AUTO 21013KT 23/10 A2985 RMK AO1 SLP081 T02280100
58020





000
SAUS46 KSGX 182052
MTRSAN
METAR KSAN 182051Z 29012KT 10SM FEW022 SCT032 23/14 A2988 RMK AO2
SLP119 T02280139 58019





000
SAUS46 KSGX 181953
MTRCZZ
METAR KCZZ 181952Z AUTO 21009KT 22/10 A2987 RMK AO1 SLP090 T02220100





000
SAUS46 KSGX 181953
MTRCZZ
METAR KCZZ 181952Z AUTO 21009KT 22/10 A2987 RMK AO1 SLP090 T02220100





000
SAUS46 KSGX 181952
MTRSAN
METAR KSAN 181951Z 29011KT 10SM FEW022 SCT032 23/14 A2991 RMK AO2
SLP127 T02280139





000
SAUS46 KSGX 181952
MTRSAN
METAR KSAN 181951Z 29011KT 10SM FEW022 SCT032 23/14 A2991 RMK AO2
SLP127 T02280139





000
SAUS46 KSGX 181853
MTRCZZ
METAR KCZZ 181852Z AUTO 19010KT 21/11 A2990 RMK AO1 SLP099 T02060106





000
SAUS46 KSGX 181852
MTRSAN
METAR KSAN 181851Z 29008KT 10SM SCT022 SCT030 BKN250 22/14 A2993 RMK
AO2 SLP133 T02220139





000
SAUS46 KSGX 181811
MTRSAN
SPECI KSAN 181810Z 28007KT 10SM SCT022 BKN030 BKN250 21/14 A2994 RMK
AO2





000
SAUS46 KSGX 181753
MTRCZZ
METAR KCZZ 181752Z AUTO 20008KT 19/10 A2992 RMK AO1 SLP105 T01890100
10194 20072 58007





000
SAUS46 KSGX 181752
MTRSAN
METAR KSAN 181751Z 31007KT 10SM BKN022 BKN030 BKN250 21/14 A2994 RMK
AO2 SLP138 T02110144 10211 20194 58001





000
SAUS46 KSGX 181653
MTRCZZ
METAR KCZZ 181652Z AUTO 00000KT 16/09 A2993 RMK AO1 SLP113 T01610094





000
SAUS46 KSGX 181653
MTRCZZ
METAR KCZZ 181652Z AUTO 00000KT 16/09 A2993 RMK AO1 SLP113 T01610094





000
SAUS46 KSGX 181652
MTRSAN
METAR KSAN 181651Z 31007KT 10SM BKN022 BKN030 BKN250 21/15 A2995 RMK
AO2 SLP142 T02060150





000
SAUS46 KSGX 181652
MTRSAN
METAR KSAN 181651Z 31007KT 10SM BKN022 BKN030 BKN250 21/15 A2995 RMK
AO2 SLP142 T02060150





000
SAUS46 KSGX 181553
MTRCZZ
METAR KCZZ 181552Z AUTO 00000KT 13/08 A2994 RMK AO1 SLP116 T01330083





000
SAUS46 KSGX 181553
MTRCZZ
METAR KCZZ 181552Z AUTO 00000KT 13/08 A2994 RMK AO1 SLP116 T01330083





000
SAUS46 KSGX 181552
MTRSAN
METAR KSAN 181551Z 29006KT 10SM BKN022 BKN031 BKN250 21/14 A2995 RMK
AO2 SLP141 T02060144





000
SAUS46 KSGX 181552
MTRSAN
METAR KSAN 181551Z 29006KT 10SM BKN022 BKN031 BKN250 21/14 A2995 RMK
AO2 SLP141 T02060144





000
SAUS46 KSGX 181453
MTRCZZ
METAR KCZZ 181452Z AUTO 04005KT 09/07 A2994 RMK AO1 SLP121 T00940072
51006





000
SAUS46 KSGX 181453
MTRCZZ
METAR KCZZ 181452Z AUTO 04005KT 09/07 A2994 RMK AO1 SLP121 T00940072
51006





000
SAUS46 KSGX 181452
MTRSAN
METAR KSAN 181451Z 00000KT 10SM BKN022 BKN031 BKN250 19/15 A2994 RMK
AO2 SLP139 T01940150 53006





000
SAUS46 KSGX 181452
MTRSAN
METAR KSAN 181451Z 00000KT 10SM BKN022 BKN031 BKN250 19/15 A2994 RMK
AO2 SLP139 T01940150 53006





000
SAUS46 KSGX 181353
MTRCZZ
METAR KCZZ 181352Z AUTO 35003KT 09/07 A2994 RMK AO1 SLP120 T00890072





000
SAUS46 KSGX 181352
MTRSAN
METAR KSAN 181351Z 00000KT 10SM BKN024 BKN035 19/15 A2993 RMK AO2
SLP134 T01940150





000
SAUS46 KSGX 181307
MTRSAN
SPECI KSAN 181306Z 00000KT 10SM BKN026 BKN043 20/15 A2993 RMK AO2





000
SAUS46 KSGX 181253
MTRCZZ
METAR KCZZ 181252Z AUTO 36006KT 09/08 A2993 RMK AO1 SLP116 T00940078





000
SAUS46 KSGX 181252
MTRSAN
METAR KSAN 181251Z 00000KT 10SM SCT024 BKN045 20/15 A2993 RMK AO2
SLP135 T02000150





000
SAUS46 KSGX 181210
MTRSAN
SPECI KSAN 181209Z 00000KT 10SM SCT024 OVC045 20/15 A2993 RMK AO2





000
SAUS46 KSGX 181153
MTRCZZ
METAR KCZZ 181152Z AUTO VRB03KT 12/09 A2992 RMK AO1 SLP108 T01170089
10150 20117 55005





000
SAUS46 KSGX 181153
MTRCZZ
METAR KCZZ 181152Z AUTO VRB03KT 12/09 A2992 RMK AO1 SLP108 T01170089
10150 20117 55005





000
SAUS46 KSGX 181152
MTRSAN
METAR KSAN 181151Z 00000KT 10SM BKN022 BKN034 20/15 A2993 RMK AO2
SLP133 T02000150 10200 20194 55004





000
SAUS46 KSGX 181115
MTRSAN
SPECI KSAN 181114Z 00000KT 10SM BKN020 OVC042 20/15 A2992 RMK AO2





000
SAUS46 KSGX 181115
MTRSAN
SPECI KSAN 181114Z 00000KT 10SM BKN020 OVC042 20/15 A2992 RMK AO2





000
SAUS46 KSGX 181059
MTRSAN
SPECI KSAN 181058Z 00000KT 10SM SCT022 BKN042 20/15 A2992 RMK AO2





000
SAUS46 KSGX 181059
MTRSAN
SPECI KSAN 181058Z 00000KT 10SM SCT022 BKN042 20/15 A2992 RMK AO2





000
SAUS46 KSGX 181053
MTRCZZ
METAR KCZZ 181052Z AUTO 00000KT 13/11 A2992 RMK AO1 SLP105 T01330106





000
SAUS46 KSGX 181053
MTRCZZ
METAR KCZZ 181052Z AUTO 00000KT 13/11 A2992 RMK AO1 SLP105 T01330106





000
SAUS46 KSGX 181052
MTRSAN
METAR KSAN 181051Z 00000KT 10SM SCT022 BKN026 OVC044 20/15 A2992 RMK
AO2 SLP132 T02000150





000
SAUS46 KSGX 181052
MTRSAN
METAR KSAN 181051Z 00000KT 10SM SCT022 BKN026 OVC044 20/15 A2992 RMK
AO2 SLP132 T02000150





    US Dept of Commerce
    National Oceanic and Atmospheric Administration
    National Weather Service
    1325 East West Highway
    Silver Spring, MD 20910
    Page Author: NWS Internet Services Team
Disclaimer
Information Quality
Credits
Glossary
Privacy Policy
Freedom of Information Act (FOIA)
About Us
Career Opportunities